sensor_id;sensor_type;location;lat;lon;timestamp;P1;durP1;ratioP1;P2;durP2;ratioP2
13269;SDS011;6703;51.994;7.570;2024-02-14T00:01:05;7.55;;;3.58;;
13269;SDS011;6703;51.994;7.570;2024-02-14T00:03:36;9.73;;;3.78;;
13269;SDS011;6703;51.994;7.570;2024-02-14T00:06:05;9.40;;;3.78;;
13269;SDS011;6703;51.994;7.570;2024-02-14T00:08:34;12.93;;;4.18;;
13269;SDS011;6703;51.994;7.570;2024-02-14T00:11:02;10.85;;;3.72;;
13269;SDS011;6703;51.994;7.570;2024-02-14T00:13:29;7.55;;;3.08;;
13269;SDS011;6703;51.994;7.570;2024-02-14T00:16:01;9.80;;;3.80;;
13269;SDS011;6703;51.994;7.570;2024-02-14T00:18:30;10.27;;;3.93;;
13269;SDS011;6703;51.994;7.570;2024-02-14T00:20:58;10.05;;;4.07;;
13269;SDS011;6703;51.994;7.570;2024-02-14T00:23:27;9.43;;;3.50;;
13269;SDS011;6703;51.994;7.570;2024-02-14T00:25:55;15.10;;;4.07;;
13269;SDS011;6703;51.994;7.570;2024-02-14T00:28:22;10.50;;;3.80;;
13269;SDS011;6703;51.994;7.570;2024-02-14T00:30:54;12.43;;;4.43;;
13269;SDS011;6703;51.994;7.570;2024-02-14T00:33:21;10.90;;;4.80;;
13269;SDS011;6703;51.994;7.570;2024-02-14T00:35:52;10.70;;;4.88;;
13269;SDS011;6703;51.994;7.570;2024-02-14T00:38:19;13.98;;;4.90;;
13269;SDS011;6703;51.994;7.570;2024-02-14T00:40:48;15.30;;;5.43;;
13269;SDS011;6703;51.994;7.570;2024-02-14T00:43:15;12.70;;;4.80;;
13269;SDS011;6703;51.994;7.570;2024-02-14T00:45:43;13.38;;;5.63;;
13269;SDS011;6703;51.994;7.570;2024-02-14T00:48:12;13.45;;;5.43;;
13269;SDS011;6703;51.994;7.570;2024-02-14T00:50:40;13.18;;;6.00;;
13269;SDS011;6703;51.994;7.570;2024-02-14T00:53:10;14.05;;;5.93;;
13269;SDS011;6703;51.994;7.570;2024-02-14T00:55:39;12.18;;;6.13;;
13269;SDS011;6703;51.994;7.570;2024-02-14T00:58:08;14.73;;;6.00;;
13269;SDS011;6703;51.994;7.570;2024-02-14T01:00:36;14.18;;;6.10;;
13269;SDS011;6703;51.994;7.570;2024-02-14T01:03:04;14.65;;;6.55;;
13269;SDS011;6703;51.994;7.570;2024-02-14T01:05:33;16.05;;;7.00;;
13269;SDS011;6703;51.994;7.570;2024-02-14T01:08:02;14.20;;;6.75;;
13269;SDS011;6703;51.994;7.570;2024-02-14T01:10:32;15.93;;;6.72;;
13269;SDS011;6703;51.994;7.570;2024-02-14T01:13:01;14.15;;;6.95;;
13269;SDS011;6703;51.994;7.570;2024-02-14T01:15:28;19.10;;;7.17;;
13269;SDS011;6703;51.994;7.570;2024-02-14T01:17:57;17.45;;;7.30;;
13269;SDS011;6703;51.994;7.570;2024-02-14T01:20:24;14.27;;;6.85;;
13269;SDS011;6703;51.994;7.570;2024-02-14T01:22:53;17.42;;;7.25;;
13269;SDS011;6703;51.994;7.570;2024-02-14T01:25:20;17.48;;;7.35;;
13269;SDS011;6703;51.994;7.570;2024-02-14T01:27:50;11.77;;;6.07;;
13269;SDS011;6703;51.994;7.570;2024-02-14T01:30:18;13.53;;;6.63;;
13269;SDS011;6703;51.994;7.570;2024-02-14T01:32:47;19.50;;;6.83;;
13269;SDS011;6703;51.994;7.570;2024-02-14T01:35:15;17.33;;;6.70;;
13269;SDS011;6703;51.994;7.570;2024-02-14T01:37:42;11.75;;;6.30;;
13269;SDS011;6703;51.994;7.570;2024-02-14T01:40:12;14.75;;;7.07;;
13269;SDS011;6703;51.994;7.570;2024-02-14T01:42:40;15.50;;;6.60;;
13269;SDS011;6703;51.994;7.570;2024-02-14T01:45:09;14.60;;;7.18;;
13269;SDS011;6703;51.994;7.570;2024-02-14T01:47:38;15.13;;;7.20;;
13269;SDS011;6703;51.994;7.570;2024-02-14T01:50:08;13.23;;;6.97;;
13269;SDS011;6703;51.994;7.570;2024-02-14T01:52:38;15.70;;;6.72;;
13269;SDS011;6703;51.994;7.570;2024-02-14T01:55:07;14.15;;;6.88;;
13269;SDS011;6703;51.994;7.570;2024-02-14T01:57:35;15.30;;;6.97;;
13269;SDS011;6703;51.994;7.570;2024-02-14T02:00:06;14.88;;;7.18;;
13269;SDS011;6703;51.994;7.570;2024-02-14T02:02:36;16.45;;;7.03;;
13269;SDS011;6703;51.994;7.570;2024-02-14T02:05:06;14.07;;;6.40;;
13269;SDS011;6703;51.994;7.570;2024-02-14T02:19:08;9.57;;;5.50;;
13269;SDS011;6703;51.994;7.570;2024-02-14T02:21:37;12.13;;;5.88;;
13269;SDS011;6703;51.994;7.570;2024-02-14T02:24:06;13.25;;;5.90;;
13269;SDS011;6703;51.994;7.570;2024-02-14T02:26:35;10.95;;;6.10;;
13269;SDS011;6703;51.994;7.570;2024-02-14T02:29:03;9.77;;;5.43;;
13269;SDS011;6703;51.994;7.570;2024-02-14T02:31:32;9.20;;;5.60;;
13269;SDS011;6703;51.994;7.570;2024-02-14T02:34:00;12.30;;;5.55;;
13269;SDS011;6703;51.994;7.570;2024-02-14T02:36:28;12.05;;;5.57;;
13269;SDS011;6703;51.994;7.570;2024-02-14T02:38:57;11.18;;;5.28;;
13269;SDS011;6703;51.994;7.570;2024-02-14T02:41:28;11.25;;;5.68;;
13269;SDS011;6703;51.994;7.570;2024-02-14T02:43:58;11.30;;;5.78;;
13269;SDS011;6703;51.994;7.570;2024-02-14T02:46:26;10.63;;;5.90;;
13269;SDS011;6703;51.994;7.570;2024-02-14T02:48:53;14.13;;;7.22;;
13269;SDS011;6703;51.994;7.570;2024-02-14T02:51:22;16.77;;;7.40;;
13269;SDS011;6703;51.994;7.570;2024-02-14T02:53:50;16.27;;;7.45;;
13269;SDS011;6703;51.994;7.570;2024-02-14T02:56:19;13.48;;;7.25;;
13269;SDS011;6703;51.994;7.570;2024-02-14T02:58:49;13.95;;;7.60;;
13269;SDS011;6703;51.994;7.570;2024-02-14T03:01:20;16.13;;;8.23;;
13269;SDS011;6703;51.994;7.570;2024-02-14T03:03:50;13.05;;;7.78;;
13269;SDS011;6703;51.994;7.570;2024-02-14T03:06:18;12.37;;;8.00;;
13269;SDS011;6703;51.994;7.570;2024-02-14T03:08:47;15.20;;;7.67;;
13269;SDS011;6703;51.994;7.570;2024-02-14T03:11:18;16.95;;;8.10;;
13269;SDS011;6703;51.994;7.570;2024-02-14T03:13:47;13.40;;;7.40;;
13269;SDS011;6703;51.994;7.570;2024-02-14T03:16:16;13.00;;;7.20;;
13269;SDS011;6703;51.994;7.570;2024-02-14T03:18:45;11.35;;;6.82;;
13269;SDS011;6703;51.994;7.570;2024-02-14T03:21:13;13.65;;;6.82;;
13269;SDS011;6703;51.994;7.570;2024-02-14T03:23:41;14.60;;;6.70;;
13269;SDS011;6703;51.994;7.570;2024-02-14T03:26:12;11.80;;;6.38;;
13269;SDS011;6703;51.994;7.570;2024-02-14T03:28:41;13.15;;;6.60;;
13269;SDS011;6703;51.994;7.570;2024-02-14T03:31:10;15.90;;;7.00;;
13269;SDS011;6703;51.994;7.570;2024-02-14T03:33:43;14.30;;;6.50;;
13269;SDS011;6703;51.994;7.570;2024-02-14T03:36:13;15.53;;;8.30;;
13269;SDS011;6703;51.994;7.570;2024-02-14T03:38:40;12.52;;;7.50;;
13269;SDS011;6703;51.994;7.570;2024-02-14T03:41:09;12.05;;;7.57;;
13269;SDS011;6703;51.994;7.570;2024-02-14T03:43:37;11.93;;;7.00;;
13269;SDS011;6703;51.994;7.570;2024-02-14T03:53:12;14.77;;;7.93;;
13269;SDS011;6703;51.994;7.570;2024-02-14T03:55:42;15.60;;;7.77;;
13269;SDS011;6703;51.994;7.570;2024-02-14T03:58:09;14.23;;;7.90;;
13269;SDS011;6703;51.994;7.570;2024-02-14T04:00:40;14.45;;;7.72;;
13269;SDS011;6703;51.994;7.570;2024-02-14T04:03:11;14.68;;;7.40;;
13269;SDS011;6703;51.994;7.570;2024-02-14T04:05:40;15.10;;;8.27;;
13269;SDS011;6703;51.994;7.570;2024-02-14T04:08:08;13.07;;;8.65;;
13269;SDS011;6703;51.994;7.570;2024-02-14T04:10:38;13.80;;;9.10;;
13269;SDS011;6703;51.994;7.570;2024-02-14T04:13:06;16.27;;;10.63;;
13269;SDS011;6703;51.994;7.570;2024-02-14T04:15:36;20.27;;;10.73;;
13269;SDS011;6703;51.994;7.570;2024-02-14T04:18:04;15.98;;;10.38;;
13269;SDS011;6703;51.994;7.570;2024-02-14T04:20:33;16.85;;;10.80;;
13269;SDS011;6703;51.994;7.570;2024-02-14T04:23:02;19.48;;;11.23;;
13269;SDS011;6703;51.994;7.570;2024-02-14T04:25:33;18.25;;;11.48;;
13269;SDS011;6703;51.994;7.570;2024-02-14T04:28:02;16.38;;;11.35;;
13269;SDS011;6703;51.994;7.570;2024-02-14T04:30:30;16.48;;;11.13;;
13269;SDS011;6703;51.994;7.570;2024-02-14T04:32:57;19.20;;;11.77;;
13269;SDS011;6703;51.994;7.570;2024-02-14T04:35:26;18.70;;;11.20;;
13269;SDS011;6703;51.994;7.570;2024-02-14T04:37:55;17.70;;;12.13;;
13269;SDS011;6703;51.994;7.570;2024-02-14T04:40:23;20.50;;;11.27;;
13269;SDS011;6703;51.994;7.570;2024-02-14T04:42:51;17.48;;;11.88;;
13269;SDS011;6703;51.994;7.570;2024-02-14T04:45:20;17.83;;;11.73;;
13269;SDS011;6703;51.994;7.570;2024-02-14T04:47:48;18.35;;;10.98;;
13269;SDS011;6703;51.994;7.570;2024-02-14T04:50:16;19.80;;;11.63;;
13269;SDS011;6703;51.994;7.570;2024-02-14T04:52:45;16.45;;;9.88;;
13269;SDS011;6703;51.994;7.570;2024-02-14T04:55:13;18.65;;;10.95;;
13269;SDS011;6703;51.994;7.570;2024-02-14T04:57:41;17.23;;;10.73;;
13269;SDS011;6703;51.994;7.570;2024-02-14T05:00:10;18.25;;;10.65;;
13269;SDS011;6703;51.994;7.570;2024-02-14T05:02:41;13.93;;;8.60;;
13269;SDS011;6703;51.994;7.570;2024-02-14T05:05:09;0.00;;;0.00;;
13269;SDS011;6703;51.994;7.570;2024-02-14T05:07:37;0.00;;;0.00;;
13269;SDS011;6703;51.994;7.570;2024-02-14T05:10:05;0.00;;;0.00;;
13269;SDS011;6703;51.994;7.570;2024-02-14T05:12:34;0.00;;;0.00;;
13269;SDS011;6703;51.994;7.570;2024-02-14T05:15:02;0.20;;;0.20;;
13269;SDS011;6703;51.994;7.570;2024-02-14T05:17:30;0.30;;;0.10;;
13269;SDS011;6703;51.994;7.570;2024-02-14T05:20:00;0.00;;;0.00;;
13269;SDS011;6703;51.994;7.570;2024-02-14T05:22:28;0.45;;;0.45;;
13269;SDS011;6703;51.994;7.570;2024-02-14T05:24:57;0.00;;;0.00;;
13269;SDS011;6703;51.994;7.570;2024-02-14T05:27:26;0.00;;;0.00;;
13269;SDS011;6703;51.994;7.570;2024-02-14T05:29:54;0.13;;;0.13;;
13269;SDS011;6703;51.994;7.570;2024-02-14T05:32:22;0.20;;;0.20;;
13269;SDS011;6703;51.994;7.570;2024-02-14T05:34:50;0.30;;;0.30;;
13269;SDS011;6703;51.994;7.570;2024-02-14T05:37:20;0.45;;;0.45;;
13269;SDS011;6703;51.994;7.570;2024-02-14T05:39:48;0.00;;;0.00;;
13269;SDS011;6703;51.994;7.570;2024-02-14T05:42:16;0.10;;;0.10;;
13269;SDS011;6703;51.994;7.570;2024-02-14T05:44:44;0.10;;;0.10;;
13269;SDS011;6703;51.994;7.570;2024-02-14T05:47:12;2.20;;;1.10;;
13269;SDS011;6703;51.994;7.570;2024-02-14T05:49:40;0.20;;;0.20;;
13269;SDS011;6703;51.994;7.570;2024-02-14T05:52:08;0.10;;;0.10;;
13269;SDS011;6703;51.994;7.570;2024-02-14T05:54:37;0.00;;;0.00;;
13269;SDS011;6703;51.994;7.570;2024-02-14T05:57:05;0.00;;;0.00;;
13269;SDS011;6703;51.994;7.570;2024-02-14T05:59:33;0.00;;;0.00;;
13269;SDS011;6703;51.994;7.570;2024-02-14T06:02:02;0.00;;;0.00;;
13269;SDS011;6703;51.994;7.570;2024-02-14T06:04:32;0.00;;;0.00;;
13269;SDS011;6703;51.994;7.570;2024-02-14T06:07:00;0.00;;;0.00;;
13269;SDS011;6703;51.994;7.570;2024-02-14T06:09:27;0.00;;;0.00;;
13269;SDS011;6703;51.994;7.570;2024-02-14T06:11:57;0.10;;;0.10;;
13269;SDS011;6703;51.994;7.570;2024-02-14T06:14:25;0.20;;;0.20;;
13269;SDS011;6703;51.994;7.570;2024-02-14T06:16:55;4.20;;;2.00;;
13269;SDS011;6703;51.994;7.570;2024-02-14T06:19:23;0.20;;;0.20;;
13269;SDS011;6703;51.994;7.570;2024-02-14T06:21:51;0.10;;;0.10;;
13269;SDS011;6703;51.994;7.570;2024-02-14T06:24:19;0.10;;;0.10;;
13269;SDS011;6703;51.994;7.570;2024-02-14T06:26:47;0.10;;;0.10;;
13269;SDS011;6703;51.994;7.570;2024-02-14T06:29:16;0.10;;;0.10;;
13269;SDS011;6703;51.994;7.570;2024-02-14T06:31:44;0.00;;;0.00;;
13269;SDS011;6703;51.994;7.570;2024-02-14T06:34:12;0.25;;;0.25;;
13269;SDS011;6703;51.994;7.570;2024-02-14T06:36:40;1.70;;;0.60;;
13269;SDS011;6703;51.994;7.570;2024-02-14T06:39:08;0.50;;;0.30;;
13269;SDS011;6703;51.994;7.570;2024-02-14T06:41:36;2.00;;;1.10;;
13269;SDS011;6703;51.994;7.570;2024-02-14T06:44:04;0.00;;;0.00;;
13269;SDS011;6703;51.994;7.570;2024-02-14T06:46:34;0.00;;;0.00;;
13269;SDS011;6703;51.994;7.570;2024-02-14T06:49:04;0.00;;;0.00;;
13269;SDS011;6703;51.994;7.570;2024-02-14T06:51:32;0.00;;;0.00;;
13269;SDS011;6703;51.994;7.570;2024-02-14T06:54:00;0.00;;;0.00;;
13269;SDS011;6703;51.994;7.570;2024-02-14T06:56:29;0.00;;;0.00;;
13269;SDS011;6703;51.994;7.570;2024-02-14T06:58:57;0.00;;;0.00;;
13269;SDS011;6703;51.994;7.570;2024-02-14T07:01:26;0.20;;;0.20;;
13269;SDS011;6703;51.994;7.570;2024-02-14T07:03:57;0.00;;;0.00;;
13269;SDS011;6703;51.994;7.570;2024-02-14T07:06:25;0.00;;;0.00;;
13269;SDS011;6703;51.994;7.570;2024-02-14T07:08:54;0.00;;;0.00;;
13269;SDS011;6703;51.994;7.570;2024-02-14T07:11:22;0.10;;;0.10;;
13269;SDS011;6703;51.994;7.570;2024-02-14T07:13:50;0.00;;;0.00;;
13269;SDS011;6703;51.994;7.570;2024-02-14T07:16:18;0.10;;;0.10;;
13269;SDS011;6703;51.994;7.570;2024-02-14T07:18:46;0.00;;;0.00;;
13269;SDS011;6703;51.994;7.570;2024-02-14T07:21:17;0.00;;;0.00;;
13269;SDS011;6703;51.994;7.570;2024-02-14T07:23:45;0.10;;;0.10;;
13269;SDS011;6703;51.994;7.570;2024-02-14T07:26:13;0.10;;;0.10;;
13269;SDS011;6703;51.994;7.570;2024-02-14T07:28:41;0.08;;;0.08;;
13269;SDS011;6703;51.994;7.570;2024-02-14T07:31:10;0.40;;;0.40;;
13269;SDS011;6703;51.994;7.570;2024-02-14T07:33:38;0.00;;;0.00;;
13269;SDS011;6703;51.994;7.570;2024-02-14T07:36:06;0.00;;;0.00;;
13269;SDS011;6703;51.994;7.570;2024-02-14T07:38:37;1.70;;;1.00;;
13269;SDS011;6703;51.994;7.570;2024-02-14T07:41:05;0.10;;;0.10;;
13269;SDS011;6703;51.994;7.570;2024-02-14T07:43:33;0.00;;;0.00;;
13269;SDS011;6703;51.994;7.570;2024-02-14T07:46:01;0.70;;;0.43;;
13269;SDS011;6703;51.994;7.570;2024-02-14T07:48:32;0.20;;;0.20;;
13269;SDS011;6703;51.994;7.570;2024-02-14T07:51:00;0.00;;;0.00;;
13269;SDS011;6703;51.994;7.570;2024-02-14T07:53:28;0.00;;;0.00;;
13269;SDS011;6703;51.994;7.570;2024-02-14T07:55:59;0.00;;;0.00;;
13269;SDS011;6703;51.994;7.570;2024-02-14T07:58:26;0.30;;;0.30;;
13269;SDS011;6703;51.994;7.570;2024-02-14T08:00:55;0.00;;;0.00;;
13269;SDS011;6703;51.994;7.570;2024-02-14T08:03:23;0.10;;;0.10;;
13269;SDS011;6703;51.994;7.570;2024-02-14T08:05:52;0.00;;;0.00;;
13269;SDS011;6703;51.994;7.570;2024-02-14T08:08:20;0.00;;;0.00;;
13269;SDS011;6703;51.994;7.570;2024-02-14T08:10:51;0.20;;;0.20;;
13269;SDS011;6703;51.994;7.570;2024-02-14T08:13:20;0.00;;;0.00;;
13269;SDS011;6703;51.994;7.570;2024-02-14T08:15:49;0.03;;;0.03;;
13269;SDS011;6703;51.994;7.570;2024-02-14T08:18:17;0.30;;;0.30;;
13269;SDS011;6703;51.994;7.570;2024-02-14T08:20:45;0.20;;;0.20;;
13269;SDS011;6703;51.994;7.570;2024-02-14T08:23:13;0.00;;;0.00;;
13269;SDS011;6703;51.994;7.570;2024-02-14T08:25:41;0.05;;;0.05;;
13269;SDS011;6703;51.994;7.570;2024-02-14T08:28:09;0.00;;;0.00;;
13269;SDS011;6703;51.994;7.570;2024-02-14T08:30:39;0.20;;;0.20;;
13269;SDS011;6703;51.994;7.570;2024-02-14T08:33:07;0.00;;;0.00;;
13269;SDS011;6703;51.994;7.570;2024-02-14T08:35:37;0.10;;;0.10;;
13269;SDS011;6703;51.994;7.570;2024-02-14T08:38:09;0.00;;;0.00;;
13269;SDS011;6703;51.994;7.570;2024-02-14T08:40:37;0.15;;;0.15;;
13269;SDS011;6703;51.994;7.570;2024-02-14T08:43:06;0.70;;;0.60;;
13269;SDS011;6703;51.994;7.570;2024-02-14T08:45:34;0.43;;;0.20;;
13269;SDS011;6703;51.994;7.570;2024-02-14T08:48:06;0.20;;;0.20;;
13269;SDS011;6703;51.994;7.570;2024-02-14T08:50:34;0.00;;;0.00;;
13269;SDS011;6703;51.994;7.570;2024-02-14T08:53:02;0.10;;;0.10;;
13269;SDS011;6703;51.994;7.570;2024-02-14T08:55:31;0.80;;;0.70;;
13269;SDS011;6703;51.994;7.570;2024-02-14T08:58:13;0.08;;;0.08;;
13269;SDS011;6703;51.994;7.570;2024-02-14T09:00:41;0.00;;;0.00;;
13269;SDS011;6703;51.994;7.570;2024-02-14T09:03:10;0.10;;;0.10;;
13269;SDS011;6703;51.994;7.570;2024-02-14T09:05:38;0.00;;;0.00;;
13269;SDS011;6703;51.994;7.570;2024-02-14T09:08:06;0.10;;;0.10;;
13269;SDS011;6703;51.994;7.570;2024-02-14T09:10:34;0.50;;;0.30;;
13269;SDS011;6703;51.994;7.570;2024-02-14T09:16:07;0.30;;;0.30;;
13269;SDS011;6703;51.994;7.570;2024-02-14T09:18:37;0.10;;;0.10;;
13269;SDS011;6703;51.994;7.570;2024-02-14T09:21:21;0.08;;;0.08;;
13269;SDS011;6703;51.994;7.570;2024-02-14T09:23:49;0.20;;;0.20;;
13269;SDS011;6703;51.994;7.570;2024-02-14T09:29:51;0.20;;;0.20;;
13269;SDS011;6703;51.994;7.570;2024-02-14T09:32:20;1.50;;;1.20;;
13269;SDS011;6703;51.994;7.570;2024-02-14T09:34:49;0.00;;;0.00;;
13269;SDS011;6703;51.994;7.570;2024-02-14T09:37:17;0.20;;;0.20;;
13269;SDS011;6703;51.994;7.570;2024-02-14T09:39:45;3.60;;;0.90;;
13269;SDS011;6703;51.994;7.570;2024-02-14T09:44:58;0.10;;;0.10;;
13269;SDS011;6703;51.994;7.570;2024-02-14T09:47:27;0.08;;;0.08;;
13269;SDS011;6703;51.994;7.570;2024-02-14T09:50:23;0.00;;;0.00;;
13269;SDS011;6703;51.994;7.570;2024-02-14T09:52:51;4.00;;;0.60;;
13269;SDS011;6703;51.994;7.570;2024-02-14T09:55:20;0.20;;;0.20;;
13269;SDS011;6703;51.994;7.570;2024-02-14T09:57:50;0.30;;;0.20;;
13269;SDS011;6703;51.994;7.570;2024-02-14T10:00:19;0.20;;;0.20;;
13269;SDS011;6703;51.994;7.570;2024-02-14T10:02:47;0.40;;;0.30;;
13269;SDS011;6703;51.994;7.570;2024-02-14T10:05:15;0.35;;;0.35;;
13269;SDS011;6703;51.994;7.570;2024-02-14T10:07:45;0.00;;;0.00;;
13269;SDS011;6703;51.994;7.570;2024-02-14T10:10:13;0.10;;;0.10;;
13269;SDS011;6703;51.994;7.570;2024-02-14T10:12:41;0.00;;;0.00;;
13269;SDS011;6703;51.994;7.570;2024-02-14T10:15:10;0.10;;;0.10;;
13269;SDS011;6703;51.994;7.570;2024-02-14T10:17:39;0.10;;;0.10;;
13269;SDS011;6703;51.994;7.570;2024-02-14T10:20:18;0.10;;;0.10;;
13269;SDS011;6703;51.994;7.570;2024-02-14T10:22:50;0.30;;;0.30;;
13269;SDS011;6703;51.994;7.570;2024-02-14T10:25:18;0.10;;;0.10;;
13269;SDS011;6703;51.994;7.570;2024-02-14T10:27:48;0.00;;;0.00;;
13269;SDS011;6703;51.994;7.570;2024-02-14T10:30:16;0.50;;;0.50;;
13269;SDS011;6703;51.994;7.570;2024-02-14T10:32:44;0.30;;;0.30;;
13269;SDS011;6703;51.994;7.570;2024-02-14T10:35:15;0.50;;;0.40;;
13269;SDS011;6703;51.994;7.570;2024-02-14T10:37:44;0.00;;;0.00;;
13269;SDS011;6703;51.994;7.570;2024-02-14T10:40:14;0.00;;;0.00;;
13269;SDS011;6703;51.994;7.570;2024-02-14T10:42:42;0.10;;;0.10;;
13269;SDS011;6703;51.994;7.570;2024-02-14T10:45:09;0.20;;;0.20;;
13269;SDS011;6703;51.994;7.570;2024-02-14T10:47:38;0.60;;;0.50;;
13269;SDS011;6703;51.994;7.570;2024-02-14T10:50:09;1.10;;;0.60;;
13269;SDS011;6703;51.994;7.570;2024-02-14T10:52:37;0.00;;;0.00;;
13269;SDS011;6703;51.994;7.570;2024-02-14T10:55:09;0.40;;;0.20;;
13269;SDS011;6703;51.994;7.570;2024-02-14T10:57:40;0.22;;;0.22;;
13269;SDS011;6703;51.994;7.570;2024-02-14T11:00:08;0.03;;;0.03;;
13269;SDS011;6703;51.994;7.570;2024-02-14T11:02:41;0.10;;;0.10;;
13269;SDS011;6703;51.994;7.570;2024-02-14T11:05:11;0.08;;;0.08;;
13269;SDS011;6703;51.994;7.570;2024-02-14T11:07:46;0.00;;;0.00;;
13269;SDS011;6703;51.994;7.570;2024-02-14T11:10:15;0.25;;;0.25;;
13269;SDS011;6703;51.994;7.570;2024-02-14T11:12:46;0.00;;;0.00;;
13269;SDS011;6703;51.994;7.570;2024-02-14T11:15:16;0.00;;;0.00;;
13269;SDS011;6703;51.994;7.570;2024-02-14T11:17:46;1.00;;;0.70;;
13269;SDS011;6703;51.994;7.570;2024-02-14T11:20:16;0.07;;;0.07;;
13269;SDS011;6703;51.994;7.570;2024-02-14T11:22:55;0.00;;;0.00;;
13269;SDS011;6703;51.994;7.570;2024-02-14T11:25:30;0.00;;;0.00;;
13269;SDS011;6703;51.994;7.570;2024-02-14T11:28:01;0.00;;;0.00;;
13269;SDS011;6703;51.994;7.570;2024-02-14T11:30:40;0.10;;;0.10;;
13269;SDS011;6703;51.994;7.570;2024-02-14T11:33:13;0.00;;;0.00;;
13269;SDS011;6703;51.994;7.570;2024-02-14T11:35:46;0.00;;;0.00;;
13269;SDS011;6703;51.994;7.570;2024-02-14T11:38:16;1.50;;;0.50;;
13269;SDS011;6703;51.994;7.570;2024-02-14T11:40:44;0.08;;;0.08;;
13269;SDS011;6703;51.994;7.570;2024-02-14T11:43:14;0.00;;;0.00;;
13269;SDS011;6703;51.994;7.570;2024-02-14T11:45:52;0.00;;;0.00;;
13269;SDS011;6703;51.994;7.570;2024-02-14T11:48:22;0.30;;;0.30;;
13269;SDS011;6703;51.994;7.570;2024-02-14T11:50:51;0.30;;;0.30;;
13269;SDS011;6703;51.994;7.570;2024-02-14T11:53:22;0.22;;;0.15;;
13269;SDS011;6703;51.994;7.570;2024-02-14T11:55:50;0.10;;;0.10;;
13269;SDS011;6703;51.994;7.570;2024-02-14T11:58:24;8.10;;;0.80;;
13269;SDS011;6703;51.994;7.570;2024-02-14T12:00:52;2.40;;;0.50;;
13269;SDS011;6703;51.994;7.570;2024-02-14T12:03:22;0.15;;;0.15;;
13269;SDS011;6703;51.994;7.570;2024-02-14T12:05:50;0.10;;;0.10;;
13269;SDS011;6703;51.994;7.570;2024-02-14T12:08:20;0.00;;;0.00;;
13269;SDS011;6703;51.994;7.570;2024-02-14T12:10:49;0.00;;;0.00;;
13269;SDS011;6703;51.994;7.570;2024-02-14T12:13:19;0.17;;;0.17;;
13269;SDS011;6703;51.994;7.570;2024-02-14T12:15:50;0.20;;;0.20;;
13269;SDS011;6703;51.994;7.570;2024-02-14T12:18:19;0.20;;;0.20;;
13269;SDS011;6703;51.994;7.570;2024-02-14T12:20:48;0.00;;;0.00;;
13269;SDS011;6703;51.994;7.570;2024-02-14T12:23:22;0.00;;;0.00;;
13269;SDS011;6703;51.994;7.570;2024-02-14T12:25:52;0.20;;;0.20;;
13269;SDS011;6703;51.994;7.570;2024-02-14T12:28:20;4.53;;;0.63;;
13269;SDS011;6703;51.994;7.570;2024-02-14T12:30:50;0.20;;;0.20;;
13269;SDS011;6703;51.994;7.570;2024-02-14T12:33:23;0.13;;;0.13;;
13269;SDS011;6703;51.994;7.570;2024-02-14T12:35:52;0.70;;;0.40;;
13269;SDS011;6703;51.994;7.570;2024-02-14T12:38:21;0.10;;;0.10;;
13269;SDS011;6703;51.994;7.570;2024-02-14T12:40:50;0.50;;;0.30;;
13269;SDS011;6703;51.994;7.570;2024-02-14T12:43:20;0.20;;;0.20;;
13269;SDS011;6703;51.994;7.570;2024-02-14T12:45:50;0.10;;;0.10;;
13269;SDS011;6703;51.994;7.570;2024-02-14T12:48:21;1.38;;;0.30;;
13269;SDS011;6703;51.994;7.570;2024-02-14T12:50:51;0.30;;;0.15;;
13269;SDS011;6703;51.994;7.570;2024-02-14T12:53:19;0.03;;;0.03;;
13269;SDS011;6703;51.994;7.570;2024-02-14T12:55:47;0.05;;;0.05;;
13269;SDS011;6703;51.994;7.570;2024-02-14T12:58:15;2.80;;;0.80;;
13269;SDS011;6703;51.994;7.570;2024-02-14T13:00:43;0.00;;;0.00;;
13269;SDS011;6703;51.994;7.570;2024-02-14T13:03:13;0.20;;;0.15;;
13269;SDS011;6703;51.994;7.570;2024-02-14T13:05:44;0.00;;;0.00;;
13269;SDS011;6703;51.994;7.570;2024-02-14T13:08:13;0.00;;;0.00;;
13269;SDS011;6703;51.994;7.570;2024-02-14T13:10:43;3.30;;;0.90;;
13269;SDS011;6703;51.994;7.570;2024-02-14T13:13:11;7.60;;;0.80;;
13269;SDS011;6703;51.994;7.570;2024-02-14T13:15:51;0.30;;;0.30;;
13269;SDS011;6703;51.994;7.570;2024-02-14T13:18:21;0.00;;;0.00;;
13269;SDS011;6703;51.994;7.570;2024-02-14T13:20:49;0.00;;;0.00;;
13269;SDS011;6703;51.994;7.570;2024-02-14T13:23:24;0.10;;;0.10;;
13269;SDS011;6703;51.994;7.570;2024-02-14T13:25:51;0.00;;;0.00;;
13269;SDS011;6703;51.994;7.570;2024-02-14T13:28:19;0.20;;;0.20;;
13269;SDS011;6703;51.994;7.570;2024-02-14T13:30:47;0.40;;;0.40;;
13269;SDS011;6703;51.994;7.570;2024-02-14T13:33:15;0.00;;;0.00;;
13269;SDS011;6703;51.994;7.570;2024-02-14T13:35:45;0.60;;;0.60;;
13269;SDS011;6703;51.994;7.570;2024-02-14T13:38:13;0.00;;;0.00;;
13269;SDS011;6703;51.994;7.570;2024-02-14T13:40:41;0.20;;;0.20;;
13269;SDS011;6703;51.994;7.570;2024-02-14T13:43:10;0.00;;;0.00;;
13269;SDS011;6703;51.994;7.570;2024-02-14T13:45:42;0.00;;;0.00;;
13269;SDS011;6703;51.994;7.570;2024-02-14T13:48:11;0.00;;;0.00;;
13269;SDS011;6703;51.994;7.570;2024-02-14T13:50:39;0.00;;;0.00;;
13269;SDS011;6703;51.994;7.570;2024-02-14T13:53:09;0.00;;;0.00;;
13269;SDS011;6703;51.994;7.570;2024-02-14T13:55:38;0.40;;;0.30;;
13269;SDS011;6703;51.994;7.570;2024-02-14T13:58:06;0.10;;;0.10;;
13269;SDS011;6703;51.994;7.570;2024-02-14T14:00:41;0.05;;;0.05;;
13269;SDS011;6703;51.994;7.570;2024-02-14T14:03:09;0.50;;;0.50;;
13269;SDS011;6703;51.994;7.570;2024-02-14T14:05:38;0.10;;;0.10;;
13269;SDS011;6703;51.994;7.570;2024-02-14T14:08:06;0.00;;;0.00;;
13269;SDS011;6703;51.994;7.570;2024-02-14T14:10:35;0.30;;;0.30;;
13269;SDS011;6703;51.994;7.570;2024-02-14T14:13:04;0.70;;;0.50;;
13269;SDS011;6703;51.994;7.570;2024-02-14T14:15:31;0.00;;;0.00;;
13269;SDS011;6703;51.994;7.570;2024-02-14T14:18:00;0.00;;;0.00;;
13269;SDS011;6703;51.994;7.570;2024-02-14T14:20:28;0.10;;;0.10;;
13269;SDS011;6703;51.994;7.570;2024-02-14T14:22:56;0.00;;;0.00;;
13269;SDS011;6703;51.994;7.570;2024-02-14T14:25:23;0.10;;;0.10;;
13269;SDS011;6703;51.994;7.570;2024-02-14T14:27:53;0.10;;;0.10;;
13269;SDS011;6703;51.994;7.570;2024-02-14T14:30:21;0.00;;;0.00;;
13269;SDS011;6703;51.994;7.570;2024-02-14T14:32:51;0.00;;;0.00;;
13269;SDS011;6703;51.994;7.570;2024-02-14T14:35:18;1.00;;;0.70;;
13269;SDS011;6703;51.994;7.570;2024-02-14T14:37:48;0.10;;;0.10;;
13269;SDS011;6703;51.994;7.570;2024-02-14T14:40:15;0.00;;;0.00;;
13269;SDS011;6703;51.994;7.570;2024-02-14T14:42:43;0.00;;;0.00;;
13269;SDS011;6703;51.994;7.570;2024-02-14T14:45:13;0.50;;;0.30;;
13269;SDS011;6703;51.994;7.570;2024-02-14T14:47:41;0.00;;;0.00;;
13269;SDS011;6703;51.994;7.570;2024-02-14T14:50:09;0.10;;;0.10;;
13269;SDS011;6703;51.994;7.570;2024-02-14T14:52:39;0.00;;;0.00;;
13269;SDS011;6703;51.994;7.570;2024-02-14T14:55:07;0.20;;;0.20;;
13269;SDS011;6703;51.994;7.570;2024-02-14T14:57:36;0.00;;;0.00;;
13269;SDS011;6703;51.994;7.570;2024-02-14T15:00:07;0.00;;;0.00;;
13269;SDS011;6703;51.994;7.570;2024-02-14T15:02:39;0.00;;;0.00;;
13269;SDS011;6703;51.994;7.570;2024-02-14T15:05:08;0.10;;;0.10;;
13269;SDS011;6703;51.994;7.570;2024-02-14T15:07:37;0.00;;;0.00;;
13269;SDS011;6703;51.994;7.570;2024-02-14T15:10:05;0.00;;;0.00;;
13269;SDS011;6703;51.994;7.570;2024-02-14T15:12:34;0.10;;;0.10;;
13269;SDS011;6703;51.994;7.570;2024-02-14T15:15:04;0.00;;;0.00;;
13269;SDS011;6703;51.994;7.570;2024-02-14T15:17:33;0.30;;;0.30;;
13269;SDS011;6703;51.994;7.570;2024-02-14T15:20:04;0.50;;;0.20;;
13269;SDS011;6703;51.994;7.570;2024-02-14T15:22:32;0.00;;;0.00;;
13269;SDS011;6703;51.994;7.570;2024-02-14T15:25:01;0.00;;;0.00;;
13269;SDS011;6703;51.994;7.570;2024-02-14T15:27:28;0.10;;;0.10;;
13269;SDS011;6703;51.994;7.570;2024-02-14T15:29:59;0.13;;;0.13;;
13269;SDS011;6703;51.994;7.570;2024-02-14T15:32:46;0.00;;;0.00;;
13269;SDS011;6703;51.994;7.570;2024-02-14T15:35:33;0.00;;;0.00;;
13269;SDS011;6703;51.994;7.570;2024-02-14T15:38:01;0.20;;;0.20;;